createdAt,value
2019-02-16T00:02:10.504Z,14.65
2019-02-16T00:04:45.853Z,12.90
2019-02-16T00:07:16.385Z,13.20
2019-02-16T00:09:45.151Z,11.73
2019-02-16T00:12:20.670Z,12.15
2019-02-16T00:14:49.380Z,11.88
2019-02-16T00:17:30.922Z,11.10
2019-02-16T00:20:06.712Z,11.03
2019-02-16T00:22:42.175Z,11.15
2019-02-16T00:25:11.018Z,10.63
2019-02-16T00:27:39.882Z,11.53
2019-02-16T00:30:15.589Z,12.03
2019-02-16T00:32:44.593Z,11.68
2019-02-16T00:35:13.312Z,10.63
2019-02-16T00:37:49.017Z,12.03
2019-02-16T00:40:17.740Z,11.35
2019-02-16T00:42:46.478Z,11.95
2019-02-16T00:45:21.413Z,12.68
2019-02-16T00:47:50.141Z,11.28
2019-02-16T00:50:18.869Z,11.93
2019-02-16T00:52:54.544Z,11.60
2019-02-16T00:55:30.281Z,10.28
2019-02-16T00:58:05.142Z,11.43
2019-02-16T01:00:33.951Z,11.90
2019-02-16T01:03:02.652Z,11.90
2019-02-16T01:05:38.574Z,11.55
2019-02-16T01:08:07.304Z,14.30
2019-02-16T01:10:36.576Z,14.03
2019-02-16T01:13:12.183Z,14.33
2019-02-16T01:15:40.894Z,15.48
2019-02-16T01:18:23.130Z,14.40
2019-02-16T01:20:58.348Z,14.20
2019-02-16T01:23:34.020Z,14.53
2019-02-16T01:26:02.708Z,14.98
2019-02-16T01:28:31.435Z,13.53
2019-02-16T01:31:06.547Z,13.03
2019-02-16T01:33:35.278Z,15.45
2019-02-16T01:36:04.076Z,16.25
2019-02-16T01:38:40.007Z,16.15
2019-02-16T01:41:08.773Z,16.03
2019-02-16T01:43:37.487Z,15.40
2019-02-16T01:46:12.628Z,15.87
2019-02-16T01:48:41.340Z,15.38
2019-02-16T01:51:10.066Z,14.30
2019-02-16T01:53:45.117Z,14.15
2019-02-16T01:56:20.743Z,14.65
2019-02-16T01:58:56.392Z,14.10
2019-02-16T02:01:25.119Z,15.13
2019-02-16T02:03:53.845Z,15.88
2019-02-16T02:06:29.067Z,14.18
2019-02-16T02:08:57.860Z,14.45
2019-02-16T02:11:26.663Z,13.90
2019-02-16T02:14:01.542Z,13.78
2019-02-16T02:16:30.259Z,14.87
2019-02-16T02:19:12.198Z,14.45
2019-02-16T02:21:48.142Z,14.70
2019-02-16T02:24:23.757Z,12.93
2019-02-16T02:26:52.540Z,15.93
2019-02-16T02:29:21.253Z,13.95
2019-02-16T02:31:56.527Z,14.95
2019-02-16T02:34:25.249Z,12.73
2019-02-16T02:36:53.989Z,14.83
2019-02-16T02:39:29.469Z,14.65
2019-02-16T02:41:58.188Z,13.32
2019-02-16T02:44:26.939Z,14.18
2019-02-16T02:47:02.608Z,14.07
2019-02-16T02:49:31.310Z,12.80
2019-02-16T02:52:00.043Z,14.65
2019-02-16T02:54:35.589Z,14.45
2019-02-16T02:57:10.553Z,13.53
2019-02-16T02:59:45.850Z,13.93
2019-02-16T03:02:14.570Z,14.03
2019-02-16T03:04:43.280Z,13.25
2019-02-16T03:07:18.656Z,13.50
2019-02-16T03:09:47.413Z,13.88
2019-02-16T03:12:16.115Z,13.13
2019-02-16T03:14:51.526Z,13.15
2019-02-16T03:17:20.253Z,12.00
2019-02-16T03:20:02.499Z,12.70
2019-02-16T03:23:15.483Z,12.03
2019-02-16T03:26:03.492Z,12.78
2019-02-16T03:28:50.906Z,13.68
2019-02-16T03:32:05.036Z,12.75
2019-02-16T03:34:38.763Z,11.75
2019-02-16T03:37:53.384Z,11.68
2019-02-16T03:40:22.183Z,10.72
2019-02-16T03:42:50.898Z,11.20
2019-02-16T03:45:25.696Z,13.25
2019-02-16T03:47:54.418Z,11.22
2019-02-16T03:50:23.135Z,11.33
2019-02-16T03:52:58.497Z,11.65
2019-02-16T03:55:27.381Z,12.10
2019-02-16T03:58:08.974Z,11.70
2019-02-16T04:00:37.701Z,10.40
2019-02-16T04:03:06.398Z,12.50
2019-02-16T04:05:42.131Z,11.43
2019-02-16T04:08:10.919Z,11.07
2019-02-16T04:10:39.661Z,11.60
2019-02-16T04:13:15.273Z,10.45
2019-02-16T04:15:43.973Z,11.05
2019-02-16T04:18:12.721Z,10.82
2019-02-16T04:20:47.642Z,11.30
2019-02-16T04:23:22.823Z,11.55
2019-02-16T04:25:58.483Z,11.05
2019-02-16T04:28:27.189Z,11.38
2019-02-16T04:30:55.904Z,11.48
2019-02-16T04:33:31.452Z,11.85
2019-02-16T04:36:00.178Z,11.97
2019-02-16T04:38:28.883Z,11.38
2019-02-16T04:41:04.492Z,11.33
2019-02-16T04:43:33.209Z,12.10
2019-02-16T04:46:01.912Z,10.67
2019-02-16T04:48:37.483Z,11.53
2019-02-16T04:51:06.187Z,11.33
2019-02-16T04:53:34.917Z,11.18
2019-02-16T04:56:10.064Z,10.53
2019-02-16T04:58:38.789Z,10.50
2019-02-16T05:01:19.917Z,10.70
2019-02-16T05:03:48.977Z,11.73
2019-02-16T05:06:17.688Z,9.60
2019-02-16T05:08:52.936Z,10.63
2019-02-16T05:11:21.679Z,10.45
2019-02-16T05:13:50.436Z,9.58
2019-02-16T05:16:26.185Z,10.20
2019-02-16T05:18:54.894Z,10.10
2019-02-16T05:21:36.580Z,9.53
2019-02-16T05:24:12.367Z,11.43
2019-02-16T05:26:48.015Z,10.75
2019-02-16T05:29:16.735Z,10.50
2019-02-16T05:31:45.442Z,10.65
2019-02-16T05:34:20.688Z,10.48
2019-02-16T05:36:49.407Z,10.35
2019-02-16T05:39:18.101Z,10.55
2019-02-16T05:41:53.581Z,10.85
2019-02-16T05:44:22.306Z,11.35
2019-02-16T05:47:16.916Z,10.45
2019-02-16T05:49:52.370Z,10.48
2019-02-16T05:52:27.535Z,10.90
2019-02-16T05:54:56.266Z,10.48
2019-02-16T05:57:25.058Z,10.53
2019-02-16T06:00:00.778Z,10.40
2019-02-16T06:02:36.191Z,12.23
2019-02-16T06:05:12.639Z,11.60
2019-02-16T06:07:41.377Z,10.55
2019-02-16T06:10:10.150Z,9.88
2019-02-16T06:12:45.742Z,10.85
2019-02-16T06:15:14.500Z,10.30
2019-02-16T06:17:43.205Z,12.35
2019-02-16T06:20:18.756Z,11.10
2019-02-16T06:22:47.481Z,12.13
2019-02-16T06:25:16.210Z,10.53
2019-02-16T06:27:51.762Z,10.13
2019-02-16T06:30:20.471Z,9.98
2019-02-16T06:32:49.186Z,10.40
2019-02-16T06:35:51.935Z,10.05
2019-02-16T06:38:20.634Z,9.83
2019-02-16T06:40:49.391Z,10.63
2019-02-16T06:43:24.746Z,10.43
2019-02-16T06:45:53.474Z,10.18
2019-02-16T06:48:35.462Z,10.78
2019-02-16T06:51:11.220Z,12.63
2019-02-16T06:53:52.610Z,10.40
2019-02-16T06:56:26.854Z,10.55
2019-02-16T06:59:02.265Z,13.13
2019-02-16T07:01:33.078Z,11.55
2019-02-16T07:04:15.325Z,13.95
2019-02-16T07:06:44.188Z,12.90
2019-02-16T07:09:13.646Z,10.65
2019-02-16T07:11:49.082Z,10.95
2019-02-16T07:14:18.936Z,10.88
2019-02-16T07:17:12.315Z,11.33
2019-02-16T07:19:45.907Z,11.20
2019-02-16T07:22:21.469Z,12.30
2019-02-16T07:24:50.214Z,12.47
2019-02-16T07:27:18.947Z,11.78
2019-02-16T07:29:54.070Z,11.60
2019-02-16T07:32:24.555Z,11.65
2019-02-16T07:34:53.322Z,11.75
2019-02-16T07:37:30.975Z,10.63
2019-02-16T07:40:00.296Z,10.60
2019-02-16T07:42:54.296Z,10.30
2019-02-16T07:45:42.303Z,11.80
2019-02-16T07:48:22.810Z,9.50
2019-02-16T07:51:17.296Z,9.73
2019-02-16T07:54:14.747Z,10.63
2019-02-16T07:56:51.378Z,10.65
2019-02-16T07:59:57.881Z,9.40
2019-02-16T08:02:48.612Z,9.43
2019-02-16T08:05:49.800Z,9.53
2019-02-16T08:08:37.544Z,8.97
2019-02-16T08:11:44.273Z,10.08
2019-02-16T08:14:44.251Z,9.25
2019-02-16T08:17:44.307Z,10.32
2019-02-16T08:20:38.672Z,8.30
2019-02-16T08:23:22.249Z,9.83
2019-02-16T08:26:12.796Z,9.08
2019-02-16T08:28:57.653Z,8.08
2019-02-16T08:31:45.571Z,8.15
2019-02-16T08:34:33.131Z,8.68
2019-02-16T08:37:08.081Z,8.15
2019-02-16T08:40:01.842Z,8.35
2019-02-16T08:42:55.841Z,7.90
2019-02-16T08:45:57.584Z,7.93
2019-02-16T08:48:36.208Z,7.75
2019-02-16T08:51:46.429Z,8.05
2019-02-16T08:54:23.297Z,7.53
2019-02-16T08:57:26.976Z,8.00
2019-02-16T09:00:06.636Z,7.83
2019-02-16T09:02:50.391Z,7.35
2019-02-16T09:05:41.982Z,7.87
2019-02-16T09:08:42.567Z,8.48
2019-02-16T09:11:36.457Z,7.87
2019-02-16T09:14:20.647Z,7.77
2019-02-16T09:17:04.477Z,6.67
2019-02-16T09:19:52.976Z,6.75
2019-02-16T09:22:29.944Z,6.97
2019-02-16T09:25:17.148Z,5.67
2019-02-16T09:28:04.973Z,5.97
2019-02-16T09:30:57.340Z,5.37
2019-02-16T09:33:33.528Z,5.87
2019-02-16T09:36:13.661Z,5.28
2019-02-16T09:39:00.727Z,4.17
2019-02-16T09:41:48.224Z,4.43
2019-02-16T09:44:34.993Z,5.05
2019-02-16T09:47:32.298Z,4.72
2019-02-16T09:50:18.977Z,4.85
2019-02-16T09:53:05.319Z,5.12
2019-02-16T09:55:41.569Z,4.80
2019-02-16T09:58:41.632Z,3.65
2019-02-16T10:01:29.062Z,3.58
2019-02-16T10:04:15.060Z,3.87
2019-02-16T10:06:59.404Z,3.77
2019-02-16T10:09:52.669Z,3.37
2019-02-16T10:12:39.170Z,3.25
2019-02-16T10:15:40.962Z,3.37
2019-02-16T10:18:27.651Z,3.00
2019-02-16T10:21:28.123Z,2.90
2019-02-16T10:24:17.895Z,2.50
2019-02-16T10:26:57.929Z,3.45
2019-02-16T10:29:50.978Z,3.08
2019-02-16T10:32:44.610Z,3.42
2019-02-16T10:35:36.703Z,2.95
2019-02-16T10:38:36.966Z,3.20
2019-02-16T10:41:28.033Z,2.62
2019-02-16T10:44:17.751Z,3.22
2019-02-16T10:46:52.777Z,2.92
2019-02-16T10:50:02.176Z,2.67
2019-02-16T10:52:51.018Z,3.05
2019-02-16T10:55:48.535Z,2.75
2019-02-16T10:58:45.512Z,2.58
2019-02-16T11:01:26.849Z,2.57
2019-02-16T11:04:00.184Z,2.12
2019-02-16T11:06:46.097Z,2.17
2019-02-16T11:09:34.210Z,2.73
2019-02-16T11:12:39.910Z,2.72
2019-02-16T11:15:34.243Z,2.33
2019-02-16T11:18:28.601Z,2.70
2019-02-16T11:21:15.042Z,2.27
2019-02-16T11:24:35.906Z,2.17
2019-02-16T11:27:23.360Z,1.60
2019-02-16T11:30:15.266Z,2.60
2019-02-16T11:33:11.258Z,2.80
2019-02-16T11:36:17.381Z,1.60
2019-02-16T11:39:00.088Z,2.00
2019-02-16T11:41:49.808Z,2.20
2019-02-16T11:44:49.488Z,2.92
2019-02-16T11:47:43.893Z,1.52
2019-02-16T11:50:23.269Z,2.10
2019-02-16T11:53:36.638Z,1.65
2019-02-16T11:56:12.196Z,2.30
2019-02-16T11:58:57.812Z,1.50
2019-02-16T12:01:48.373Z,2.45
2019-02-16T12:04:41.998Z,2.30
2019-02-16T12:07:25.267Z,1.52
2019-02-16T12:10:26.616Z,1.98
2019-02-16T12:13:12.073Z,1.75
2019-02-16T12:15:55.715Z,2.45
2019-02-16T12:18:41.525Z,2.60
2019-02-16T12:21:42.673Z,2.85
2019-02-16T12:24:21.558Z,1.70
2019-02-16T12:27:16.474Z,2.02
2019-02-16T12:30:10.805Z,1.92
2019-02-16T12:33:02.118Z,1.80
2019-02-16T12:35:37.811Z,1.95
2019-02-16T12:38:31.783Z,2.25
2019-02-16T12:41:08.764Z,2.58
2019-02-16T12:44:12.373Z,1.80
2019-02-16T12:47:20.015Z,2.35
2019-02-16T12:50:03.241Z,1.67
2019-02-16T12:52:56.273Z,1.63
2019-02-16T12:55:53.840Z,2.75
2019-02-16T12:58:29.232Z,1.35
2019-02-16T13:01:24.055Z,1.50
2019-02-16T13:04:11.310Z,1.50
2019-02-16T13:07:25.567Z,1.65
2019-02-16T13:10:20.235Z,2.50
2019-02-16T13:13:29.878Z,1.82
2019-02-16T13:16:23.639Z,1.93
2019-02-16T13:19:24.644Z,2.22
2019-02-16T13:22:12.975Z,1.67
2019-02-16T13:25:00.913Z,2.27
2019-02-16T13:27:48.083Z,1.25
2019-02-16T13:30:30.158Z,1.20
2019-02-16T13:33:16.706Z,2.10
2019-02-16T13:35:59.251Z,1.50
2019-02-16T13:38:34.837Z,1.17
2019-02-16T13:41:22.917Z,1.52
2019-02-16T13:44:10.754Z,1.17
2019-02-16T13:47:03.695Z,1.80
2019-02-16T13:50:03.876Z,1.92
2019-02-16T13:52:51.783Z,1.20
2019-02-16T13:55:37.904Z,1.30
2019-02-16T13:58:35.328Z,1.80
2019-02-16T14:01:41.691Z,1.07
2019-02-16T14:04:26.370Z,1.67
2019-02-16T14:07:06.989Z,1.27
2019-02-16T14:09:51.458Z,1.37
2019-02-16T14:12:31.104Z,1.25
2019-02-16T14:15:13.029Z,1.10
2019-02-16T14:17:48.765Z,1.55
2019-02-16T14:20:24.154Z,1.10
2019-02-16T14:22:53.625Z,1.82
2019-02-16T14:25:45.448Z,1.45
2019-02-16T14:28:13.600Z,1.67
2019-02-16T14:30:50.820Z,2.10
2019-02-16T14:33:19.693Z,1.57
2019-02-16T14:35:48.569Z,1.40
2019-02-16T14:38:52.043Z,1.70
2019-02-16T14:41:22.296Z,2.10
2019-02-16T14:43:51.641Z,2.17
2019-02-16T14:46:27.216Z,1.47
2019-02-16T14:48:55.913Z,1.20
2019-02-16T14:51:24.743Z,1.50
2019-02-16T14:54:00.356Z,1.92
2019-02-16T14:56:35.813Z,1.50
2019-02-16T14:59:11.064Z,1.60
2019-02-16T15:01:39.876Z,1.32
2019-02-16T15:04:08.652Z,1.40
2019-02-16T15:06:44.020Z,1.65
2019-02-16T15:09:13.130Z,1.90
2019-02-16T15:11:41.864Z,2.30
2019-02-16T15:14:17.562Z,1.40
2019-02-16T15:16:46.290Z,1.57
2019-02-16T15:19:28.845Z,1.60
2019-02-16T15:21:57.571Z,1.30
2019-02-16T15:24:26.346Z,2.40
2019-02-16T15:27:02.236Z,1.52
2019-02-16T15:29:31.364Z,1.87
2019-02-16T15:32:00.351Z,1.37
2019-02-16T15:34:35.454Z,1.57
2019-02-16T15:37:41.334Z,1.45
2019-02-16T15:40:17.766Z,2.30
2019-02-16T15:42:46.671Z,2.02
2019-02-16T15:45:15.502Z,1.70
2019-02-16T15:47:51.418Z,1.77
2019-02-16T15:50:20.980Z,1.60
2019-02-16T15:53:02.876Z,1.70
2019-02-16T15:55:38.638Z,1.60
2019-02-16T15:58:14.040Z,1.82
2019-02-16T16:00:42.985Z,1.70
2019-02-16T16:03:11.945Z,1.42
2019-02-16T16:05:47.872Z,2.43
2019-02-16T16:08:37.457Z,2.08
2019-02-16T16:11:27.757Z,1.47
2019-02-16T16:14:06.613Z,1.70
2019-02-16T16:17:00.639Z,1.50
2019-02-16T16:19:41.707Z,1.92
2019-02-16T16:22:30.751Z,1.77
2019-02-16T16:25:10.312Z,1.85
2019-02-16T16:27:56.897Z,2.00
2019-02-16T16:30:47.290Z,2.47
2019-02-16T16:33:54.337Z,1.93
2019-02-16T16:36:31.733Z,1.90
2019-02-16T16:39:38.635Z,2.10
2019-02-16T16:42:16.053Z,3.03
2019-02-16T16:45:04.693Z,1.95
2019-02-16T16:47:51.104Z,2.02
2019-02-16T16:50:44.680Z,2.62
2019-02-16T16:53:31.212Z,3.08
2019-02-16T16:56:35.773Z,3.83
2019-02-16T16:59:22.109Z,3.05
2019-02-16T17:02:15.790Z,2.20
2019-02-16T17:05:00.838Z,3.30
2019-02-16T17:07:44.799Z,3.30
2019-02-16T17:10:23.309Z,2.80
2019-02-16T17:13:11.045Z,3.25
2019-02-16T17:15:50.998Z,3.45
2019-02-16T17:18:46.941Z,2.85
2019-02-16T17:21:34.746Z,3.35
2019-02-16T17:24:44.975Z,2.87
2019-02-16T17:27:32.764Z,3.30
2019-02-16T17:30:17.040Z,4.13
2019-02-16T17:33:07.772Z,3.17
2019-02-16T17:36:11.033Z,3.12
2019-02-16T17:38:58.851Z,3.05
2019-02-16T17:41:54.565Z,4.33
2019-02-16T17:44:48.362Z,3.45
2019-02-16T17:47:55.279Z,3.30
2019-02-16T17:50:33.664Z,3.20
2019-02-16T17:53:31.117Z,2.90
2019-02-16T17:56:26.001Z,3.15
2019-02-16T17:59:12.768Z,3.00
2019-02-16T18:01:56.368Z,3.02
2019-02-16T18:05:00.413Z,3.87
2019-02-16T18:07:47.021Z,3.95
2019-02-16T18:10:35.677Z,3.75
2019-02-16T18:13:18.340Z,3.25
2019-02-16T18:16:04.647Z,4.20
2019-02-16T18:18:58.279Z,3.80
2019-02-16T18:22:03.417Z,3.47
2019-02-16T18:25:03.962Z,3.53
2019-02-16T18:28:05.057Z,4.20
2019-02-16T18:30:52.559Z,3.60
2019-02-16T18:33:48.430Z,4.12
2019-02-16T18:36:25.078Z,4.67
2019-02-16T18:39:22.479Z,3.85
2019-02-16T18:42:08.617Z,4.83
2019-02-16T18:45:06.364Z,4.45
2019-02-16T18:47:52.916Z,5.40
2019-02-16T18:50:49.995Z,5.12
2019-02-16T18:53:28.655Z,4.33
2019-02-16T18:56:48.378Z,5.10
2019-02-16T18:59:42.315Z,4.78
2019-02-16T19:02:39.416Z,4.75
2019-02-16T19:05:32.903Z,5.12
2019-02-16T19:08:19.431Z,5.03
2019-02-16T19:11:00.458Z,4.60
2019-02-16T19:13:53.373Z,5.37
2019-02-16T19:16:39.969Z,4.35
2019-02-16T19:19:26.492Z,5.47
2019-02-16T19:22:13.151Z,5.40
2019-02-16T19:25:00.568Z,6.12
2019-02-16T19:27:58.446Z,7.10
2019-02-16T19:30:51.056Z,5.80
2019-02-16T19:33:28.673Z,6.20
2019-02-16T19:36:22.025Z,8.03
2019-02-16T19:39:12.758Z,6.58
2019-02-16T19:42:02.030Z,7.00
2019-02-16T19:44:47.440Z,6.78
2019-02-16T19:47:33.153Z,7.47
2019-02-16T19:50:26.713Z,7.58
2019-02-16T19:53:07.708Z,8.13
2019-02-16T19:55:57.308Z,7.20
2019-02-16T19:58:58.634Z,7.70
2019-02-16T20:01:52.593Z,6.85
2019-02-16T20:04:46.923Z,6.83
2019-02-16T20:07:37.543Z,6.95
2019-02-16T20:10:32.084Z,8.20
2019-02-16T20:13:22.599Z,8.13
2019-02-16T20:16:11.957Z,7.83
2019-02-16T20:18:53.897Z,7.80
2019-02-16T20:21:46.792Z,7.58
2019-02-16T20:24:28.653Z,7.97
2019-02-16T20:27:11.950Z,7.93
2019-02-16T20:29:53.311Z,7.47
2019-02-16T20:32:48.523Z,6.97
2019-02-16T20:35:24.760Z,8.10
2019-02-16T20:38:06.956Z,7.83
2019-02-16T20:40:54.913Z,7.85
2019-02-16T20:43:48.242Z,6.20
2019-02-16T20:46:43.914Z,7.30
2019-02-16T20:49:41.337Z,8.40
2019-02-16T20:52:26.812Z,8.13
2019-02-16T20:55:12.227Z,6.83
2019-02-16T20:57:55.367Z,7.50
2019-02-16T21:00:51.980Z,7.92
2019-02-16T21:03:41.001Z,8.18
2019-02-16T21:06:43.960Z,7.05
2019-02-16T21:09:36.724Z,8.53
2019-02-16T21:12:35.884Z,7.67
2019-02-16T21:15:24.894Z,6.87
2019-02-16T21:18:35.095Z,6.87
2019-02-16T21:21:31.880Z,8.58
2019-02-16T21:24:21.298Z,6.78
2019-02-16T21:27:03.234Z,7.45
2019-02-16T21:29:59.594Z,7.30
2019-02-16T21:33:05.921Z,9.10
2019-02-16T21:35:58.178Z,7.20
2019-02-16T21:38:39.023Z,7.42
2019-02-16T21:41:23.541Z,7.72
2019-02-16T21:43:59.122Z,7.47
2019-02-16T21:46:50.876Z,9.65
2019-02-16T21:49:36.649Z,7.17
2019-02-16T21:52:27.072Z,7.53
2019-02-16T21:55:04.741Z,7.83
2019-02-16T21:58:09.025Z,12.75
2019-02-16T22:01:01.524Z,12.53
2019-02-16T22:03:54.558Z,11.30
2019-02-16T22:06:46.712Z,17.37
2019-02-16T22:09:32.762Z,28.25
2019-02-16T22:12:11.147Z,57.17
2019-02-16T22:14:46.039Z,64.12
2019-02-16T22:17:15.043Z,58.30
2019-02-16T22:19:43.897Z,76.10
2019-02-16T22:22:18.950Z,81.50
2019-02-16T22:24:47.957Z,74.67
2019-02-16T22:27:16.745Z,79.05
2019-02-16T22:29:52.051Z,59.87
2019-02-16T22:32:20.843Z,58.60
2019-02-16T22:35:03.048Z,58.30
2019-02-16T22:37:31.767Z,47.62
2019-02-16T22:40:00.491Z,35.33
2019-02-16T22:42:35.965Z,34.80
2019-02-16T22:45:05.668Z,35.37
2019-02-16T22:47:34.955Z,34.75
2019-02-16T22:50:09.911Z,33.53
2019-02-16T22:52:39.063Z,33.92
2019-02-16T22:55:08.387Z,32.42
2019-02-16T22:57:43.959Z,34.03
2019-02-16T23:00:37.312Z,28.83
2019-02-16T23:03:14.589Z,29.67
2019-02-16T23:05:43.516Z,27.05
2019-02-16T23:08:12.403Z,26.75
2019-02-16T23:10:49.234Z,22.30
2019-02-16T23:13:18.022Z,22.80
2019-02-16T23:15:46.930Z,18.60
2019-02-16T23:18:22.988Z,17.73
2019-02-16T23:20:51.860Z,15.30
2019-02-16T23:23:20.672Z,14.40
2019-02-16T23:25:55.974Z,23.13
2019-02-16T23:28:27.384Z,25.75
2019-02-16T23:30:56.895Z,21.68
2019-02-16T23:33:32.814Z,19.85
2019-02-16T23:36:08.779Z,19.62
2019-02-16T23:38:44.177Z,16.23
2019-02-16T23:41:13.126Z,15.60
2019-02-16T23:43:44.723Z,13.90
2019-02-16T23:46:25.631Z,13.80
2019-02-16T23:48:55.472Z,13.40
2019-02-16T23:51:24.684Z,14.87
2019-02-16T23:54:01.467Z,15.00
2019-02-16T23:56:31.174Z,14.03
2019-02-16T23:59:14.430Z,14.47
